British Envoy — MNAN4 — position and weather

sailwx.info

Track history (hours):
 
Tides and Currents Weather Stations Pressure Air Temp Water Temp Dewpoint Dewpoint Depression Visibility Wind Speed Wind Dir Waves Ship Positions

British Envoy

Last reported at 2016-Jun-27 16:12 UTC. Time now 2016-Jun-29 18:17 UTC.
Position S 30°54' E 030°49'.

Length 184.2 m; beam 27.4 m; draft 11.3 m.

Type: Tanker. MMSI: 235011280.

Date/timePositionNaut miles runAvg speedWind from/ knotsBaromVisibWave heightAir tempDewpointWater temp
2016-Jun-27 16:12S 30°54' E 030°49'1013.8
2016-Jun-27 15:28S 30°46' E 030°55'1212.7
2016-Jun-27 14:33S 30°35' E 031°01'1313.1
2016-Jun-27 13:33S 30°23' E 031°06'1413.7
2016-Jun-27 12:33S 30°09' E 031°07'1312.6
2016-Jun-27 11:33S 29°57' E 031°08'6 5.8
2016-Jun-27 10:33S 29°53' E 031°02'0 0.1
2016-Jun-27 09:30S 29°53' E 031°02'0 0.0
2016-Jun-27 08:33S 29°53' E 031°02'0 0.0
2016-Jun-27 07:33S 29°53' E 031°02'0 0.0
2016-Jun-27 06:33S 29°53' E 031°02'0 0.0
2016-Jun-27 05:33S 29°53' E 031°02'0 0.0
2016-Jun-27 04:30S 29°53' E 031°02'0 0.0
2016-Jun-27 03:33S 29°53' E 031°02'0 0.0
2016-Jun-27 02:33S 29°53' E 031°02'0 0.0
2016-Jun-27 01:33S 29°53' E 031°02'0 0.0
2016-Jun-27 00:33S 29°53' E 031°02'0 0.0
2016-Jun-26 23:33S 29°53' E 031°02'0 0.0
2016-Jun-26 22:33S 29°53' E 031°02'0 0.0
2016-Jun-26 21:33S 29°53' E 031°02'0 0.0
2016-Jun-26 20:33S 29°53' E 031°02'0 0.0
2016-Jun-26 19:30S 29°53' E 031°02'0 0.0
2016-Jun-26 18:33S 29°53' E 031°02'0 0.0
2016-Jun-26 17:30S 29°53' E 031°02'0 0.0
2016-Jun-26 16:33S 29°53' E 031°02'  
2016-Jun-24 12:07S 31°06' E 030°33'5 8.5
2016-Jun-24 11:33S 31°10' E 030°30'14210.5
2016-Jun-23 22:00S 32°54' E 028°36'39111.5 360 / 391026.2 5.4 2.020.215.1
2016-Jun-22 12:00S 35°06' E 021°12'14812.9 250 / 51027.010.8 0.515.0 9.217.0
2016-Jun-22 00:30S 34°30' E 018°17'1212.5
2016-Jun-21 23:32S 34°19' E 018°09'1313.0
2016-Jun-21 22:32S 34°06' E 018°10'1313.2
2016-Jun-21 21:33S 33°55' E 018°16'2 2.4
2016-Jun-21 20:33S 33°52' E 018°16'1211.9
2016-Jun-21 19:33S 33°51' E 018°01'4 4.1
2016-Jun-21 18:31S 33°51' E 017°56'9 9.5
2016-Jun-21 17:33S 33°51' E 018°07'1313.0
2016-Jun-21 16:33S 33°51' E 018°23'3 3.3
2016-Jun-21 15:33S 33°51' E 018°27'0 0.1
2016-Jun-21 14:33S 33°51' E 018°27'0 0.1
2016-Jun-21 13:33S 33°51' E 018°27'2 2.3
2016-Jun-21 12:33S 33°53' E 018°26'2 1.8
2016-Jun-21 11:34S 33°55' E 018°27'0 0.0
2016-Jun-21 10:33S 33°55' E 018°27'0 0.0
2016-Jun-21 09:33S 33°55' E 018°27'0 0.0
2016-Jun-21 08:33S 33°55' E 018°27'0 0.0
2016-Jun-21 07:33S 33°55' E 018°27'0 0.0
2016-Jun-21 05:33S 33°55' E 018°27'0 0.0
2016-Jun-21 04:33S 33°55' E 018°27'0 0.0
2016-Jun-21 03:33S 33°55' E 018°27'0 0.0
2016-Jun-21 02:33S 33°55' E 018°27'0 0.0
2016-Jun-21 01:33S 33°55' E 018°27'0 0.0
2016-Jun-21 00:33S 33°55' E 018°27'0 0.0
2016-Jun-20 23:33S 33°55' E 018°27'0 0.0
2016-Jun-20 22:33S 33°55' E 018°27'0 0.0
2016-Jun-20 21:33S 33°55' E 018°27'0 0.0
2016-Jun-20 20:33S 33°55' E 018°27'0 0.0
2016-Jun-20 19:33S 33°55' E 018°27'0 0.0
2016-Jun-20 18:33S 33°55' E 018°27'0 0.0
2016-Jun-20 17:33S 33°55' E 018°27'0 0.0
2016-Jun-20 16:33S 33°55' E 018°27'0 0.0
2016-Jun-20 15:33S 33°55' E 018°27'0 0.0
2016-Jun-20 14:33S 33°55' E 018°27'0 0.0
2016-Jun-20 13:33S 33°55' E 018°27'0 0.0
2016-Jun-20 12:33S 33°55' E 018°27'0 0.0
2016-Jun-20 11:33S 33°55' E 018°27'0 0.0
2016-Jun-20 10:27S 33°55' E 018°27'0 0.0
2016-Jun-20 09:33S 33°55' E 018°27'0 0.0
2016-Jun-20 08:33S 33°55' E 018°27'0 0.0
2016-Jun-20 07:33S 33°55' E 018°27'0 0.0
2016-Jun-20 06:33S 33°55' E 018°27'0 0.0
2016-Jun-20 05:33S 33°55' E 018°27'0 0.0
2016-Jun-20 04:33S 33°55' E 018°27'0 0.0
2016-Jun-20 03:33S 33°55' E 018°27'0 0.0
2016-Jun-20 02:30S 33°55' E 018°27'0 0.0
2016-Jun-20 01:33S 33°55' E 018°27'0 0.0
2016-Jun-20 00:33S 33°55' E 018°27'0 0.0
2016-Jun-19 23:33S 33°55' E 018°27'0 0.0
2016-Jun-19 22:33S 33°55' E 018°27'0 0.0
2016-Jun-19 21:33S 33°55' E 018°27'0 0.0
2016-Jun-19 20:33S 33°55' E 018°27'0 0.0
2016-Jun-19 19:33S 33°55' E 018°27'0 0.0
2016-Jun-19 18:33S 33°55' E 018°27'0 0.0
2016-Jun-19 17:33S 33°55' E 018°27'0 0.0
2016-Jun-19 16:33S 33°55' E 018°27'0 0.0
2016-Jun-19 15:33S 33°55' E 018°27'0 0.0
2016-Jun-19 14:33S 33°55' E 018°27'0 0.0
2016-Jun-19 13:33S 33°55' E 018°27'0 0.0
2016-Jun-19 12:33S 33°55' E 018°27'0 0.0
2016-Jun-19 11:33S 33°55' E 018°27'0 0.0
2016-Jun-19 10:33S 33°55' E 018°27'0 0.0
2016-Jun-19 09:33S 33°55' E 018°27'0 0.0
2016-Jun-19 08:33S 33°55' E 018°27'0 0.0
2016-Jun-19 07:33S 33°55' E 018°27'0 0.0
2016-Jun-19 06:33S 33°55' E 018°27'0 0.0
2016-Jun-19 05:33S 33°55' E 018°27'0 0.0
2016-Jun-19 04:33S 33°55' E 018°27'0 0.0
2016-Jun-19 03:33S 33°55' E 018°27'0 0.0
2016-Jun-19 02:33S 33°55' E 018°27'0 0.0
2016-Jun-19 01:33S 33°55' E 018°27'0 0.0
2016-Jun-19 00:33S 33°55' E 018°27'0 0.0
2016-Jun-18 23:33S 33°55' E 018°27'0 0.0
2016-Jun-18 22:33S 33°55' E 018°27'0 0.0
2016-Jun-18 21:33S 33°55' E 018°27'0 0.0
2016-Jun-18 20:33S 33°55' E 018°27'0 0.0
2016-Jun-18 19:33S 33°55' E 018°27'0 0.0
2016-Jun-18 18:33S 33°55' E 018°27'0 0.0
2016-Jun-18 17:33S 33°55' E 018°27'0 0.0
2016-Jun-18 16:33S 33°55' E 018°27'0 0.0
2016-Jun-18 15:33S 33°55' E 018°27'0 0.0
2016-Jun-18 14:33S 33°55' E 018°27'0 0.0
2016-Jun-18 13:33S 33°55' E 018°27'0 0.0
2016-Jun-18 11:33S 33°55' E 018°27'0 0.0
2016-Jun-18 10:33S 33°55' E 018°27'0 0.0
2016-Jun-18 09:33S 33°55' E 018°27'0 0.0
2016-Jun-18 08:30S 33°55' E 018°27'0 0.0
2016-Jun-18 07:33S 33°55' E 018°27'0 0.0
2016-Jun-18 06:33S 33°55' E 018°27'0 0.0
2016-Jun-18 05:30S 33°55' E 018°27'0 0.0
2016-Jun-18 04:27S 33°55' E 018°27'0 0.0
2016-Jun-18 03:33S 33°55' E 018°27'0 0.0
2016-Jun-18 02:33S 33°55' E 018°27'0 0.0
2016-Jun-18 01:33S 33°55' E 018°27'0 0.0
2016-Jun-18 00:33S 33°55' E 018°27'0 0.0
2016-Jun-17 23:33S 33°55' E 018°27'0 0.0
2016-Jun-17 22:33S 33°55' E 018°27'0 0.0
2016-Jun-17 21:30S 33°55' E 018°27'0 0.0
2016-Jun-17 20:33S 33°55' E 018°27'0 0.0
2016-Jun-17 19:33S 33°55' E 018°27'0 0.0
2016-Jun-17 18:33S 33°55' E 018°27'0 0.0
2016-Jun-17 17:33S 33°55' E 018°27'0 0.0
2016-Jun-17 16:33S 33°55' E 018°27'  
Track history (hours):
 
Tides and Currents Weather Stations Pressure Air Temp Water Temp Dewpoint Dewpoint Depression Visibility Wind Speed Wind Dir Waves Ship Positions

British Envoy

Last reported at 2016-Jun-27 16:12 UTC. Time now 2016-Jun-29 18:17 UTC.
Position S 30°54' E 030°49'.

Length 184.2 m; beam 27.4 m; draft 11.3 m.

Type: Tanker. MMSI: 235011280.

Date/timePositionNaut miles runAvg speedWind from/ knotsBaromVisibWave heightAir tempDewpointWater temp
2016-Jun-27 16:12S 30°54' E 030°49'1013.8
2016-Jun-27 15:28S 30°46' E 030°55'1212.7
2016-Jun-27 14:33S 30°35' E 031°01'1313.1
2016-Jun-27 13:33S 30°23' E 031°06'1413.7
2016-Jun-27 12:33S 30°09' E 031°07'1312.6
2016-Jun-27 11:33S 29°57' E 031°08'6 5.8
2016-Jun-27 10:33S 29°53' E 031°02'0 0.1
2016-Jun-27 09:30S 29°53' E 031°02'0 0.0
2016-Jun-27 08:33S 29°53' E 031°02'0 0.0
2016-Jun-27 07:33S 29°53' E 031°02'0 0.0
2016-Jun-27 06:33S 29°53' E 031°02'0 0.0
2016-Jun-27 05:33S 29°53' E 031°02'0 0.0
2016-Jun-27 04:30S 29°53' E 031°02'0 0.0
2016-Jun-27 03:33S 29°53' E 031°02'0 0.0
2016-Jun-27 02:33S 29°53' E 031°02'0 0.0
2016-Jun-27 01:33S 29°53' E 031°02'0 0.0
2016-Jun-27 00:33S 29°53' E 031°02'0 0.0
2016-Jun-26 23:33S 29°53' E 031°02'0 0.0
2016-Jun-26 22:33S 29°53' E 031°02'0 0.0
2016-Jun-26 21:33S 29°53' E 031°02'0 0.0
2016-Jun-26 20:33S 29°53' E 031°02'0 0.0
2016-Jun-26 19:30S 29°53' E 031°02'0 0.0
2016-Jun-26 18:33S 29°53' E 031°02'0 0.0
2016-Jun-26 17:30S 29°53' E 031°02'0 0.0
2016-Jun-26 16:33S 29°53' E 031°02'  
2016-Jun-24 12:07S 31°06' E 030°33'5 8.5
2016-Jun-24 11:33S 31°10' E 030°30'14210.5
2016-Jun-23 22:00S 32°54' E 028°36'39111.5 360 / 391026.2 5.4 2.020.215.1
2016-Jun-22 12:00S 35°06' E 021°12'14812.9 250 / 51027.010.8 0.515.0 9.217.0
2016-Jun-22 00:30S 34°30' E 018°17'1212.5
2016-Jun-21 23:32S 34°19' E 018°09'1313.0
2016-Jun-21 22:32S 34°06' E 018°10'1313.2
2016-Jun-21 21:33S 33°55' E 018°16'2 2.4
2016-Jun-21 20:33S 33°52' E 018°16'1211.9
2016-Jun-21 19:33S 33°51' E 018°01'4 4.1
2016-Jun-21 18:31S 33°51' E 017°56'9 9.5
2016-Jun-21 17:33S 33°51' E 018°07'1313.0
2016-Jun-21 16:33S 33°51' E 018°23'3 3.3
2016-Jun-21 15:33S 33°51' E 018°27'0 0.1
2016-Jun-21 14:33S 33°51' E 018°27'0 0.1
2016-Jun-21 13:33S 33°51' E 018°27'2 2.3
2016-Jun-21 12:33S 33°53' E 018°26'2 1.8
2016-Jun-21 11:34S 33°55' E 018°27'0 0.0
2016-Jun-21 10:33S 33°55' E 018°27'0 0.0
2016-Jun-21 09:33S 33°55' E 018°27'0 0.0
2016-Jun-21 08:33S 33°55' E 018°27'0 0.0
2016-Jun-21 07:33S 33°55' E 018°27'0 0.0
2016-Jun-21 05:33S 33°55' E 018°27'0 0.0
2016-Jun-21 04:33S 33°55' E 018°27'0 0.0
2016-Jun-21 03:33S 33°55' E 018°27'0 0.0
2016-Jun-21 02:33S 33°55' E 018°27'0 0.0
2016-Jun-21 01:33S 33°55' E 018°27'0 0.0
2016-Jun-21 00:33S 33°55' E 018°27'0 0.0
2016-Jun-20 23:33S 33°55' E 018°27'0 0.0
2016-Jun-20 22:33S 33°55' E 018°27'0 0.0
2016-Jun-20 21:33S 33°55' E 018°27'0 0.0
2016-Jun-20 20:33S 33°55' E 018°27'0 0.0
2016-Jun-20 19:33S 33°55' E 018°27'0 0.0
2016-Jun-20 18:33S 33°55' E 018°27'0 0.0
2016-Jun-20 17:33S 33°55' E 018°27'0 0.0
2016-Jun-20 16:33S 33°55' E 018°27'0 0.0
2016-Jun-20 15:33S 33°55' E 018°27'0 0.0
2016-Jun-20 14:33S 33°55' E 018°27'0 0.0
2016-Jun-20 13:33S 33°55' E 018°27'0 0.0
2016-Jun-20 12:33S 33°55' E 018°27'0 0.0
2016-Jun-20 11:33S 33°55' E 018°27'0 0.0
2016-Jun-20 10:27S 33°55' E 018°27'0 0.0
2016-Jun-20 09:33S 33°55' E 018°27'0 0.0
2016-Jun-20 08:33S 33°55' E 018°27'0 0.0
2016-Jun-20 07:33S 33°55' E 018°27'0 0.0
2016-Jun-20 06:33S 33°55' E 018°27'0 0.0
2016-Jun-20 05:33S 33°55' E 018°27'0 0.0
2016-Jun-20 04:33S 33°55' E 018°27'0 0.0
2016-Jun-20 03:33S 33°55' E 018°27'0 0.0
2016-Jun-20 02:30S 33°55' E 018°27'0 0.0
2016-Jun-20 01:33S 33°55' E 018°27'0 0.0
2016-Jun-20 00:33S 33°55' E 018°27'0 0.0
2016-Jun-19 23:33S 33°55' E 018°27'0 0.0
2016-Jun-19 22:33S 33°55' E 018°27'0 0.0
2016-Jun-19 21:33S 33°55' E 018°27'0 0.0
2016-Jun-19 20:33S 33°55' E 018°27'0 0.0
2016-Jun-19 19:33S 33°55' E 018°27'0 0.0
2016-Jun-19 18:33S 33°55' E 018°27'0 0.0
2016-Jun-19 17:33S 33°55' E 018°27'0 0.0
2016-Jun-19 16:33S 33°55' E 018°27'0 0.0
2016-Jun-19 15:33S 33°55' E 018°27'0 0.0
2016-Jun-19 14:33S 33°55' E 018°27'0 0.0
2016-Jun-19 13:33S 33°55' E 018°27'0 0.0
2016-Jun-19 12:33S 33°55' E 018°27'0 0.0
2016-Jun-19 11:33S 33°55' E 018°27'0 0.0
2016-Jun-19 10:33S 33°55' E 018°27'0 0.0
2016-Jun-19 09:33S 33°55' E 018°27'0 0.0
2016-Jun-19 08:33S 33°55' E 018°27'0 0.0
2016-Jun-19 07:33S 33°55' E 018°27'0 0.0
2016-Jun-19 06:33S 33°55' E 018°27'0 0.0
2016-Jun-19 05:33S 33°55' E 018°27'0 0.0
2016-Jun-19 04:33S 33°55' E 018°27'0 0.0
2016-Jun-19 03:33S 33°55' E 018°27'0 0.0
2016-Jun-19 02:33S 33°55' E 018°27'0 0.0
2016-Jun-19 01:33S 33°55' E 018°27'0 0.0
2016-Jun-19 00:33S 33°55' E 018°27'0 0.0
2016-Jun-18 23:33S 33°55' E 018°27'0 0.0
2016-Jun-18 22:33S 33°55' E 018°27'0 0.0
2016-Jun-18 21:33S 33°55' E 018°27'0 0.0
2016-Jun-18 20:33S 33°55' E 018°27'0 0.0
2016-Jun-18 19:33S 33°55' E 018°27'0 0.0
2016-Jun-18 18:33S 33°55' E 018°27'0 0.0
2016-Jun-18 17:33S 33°55' E 018°27'0 0.0
2016-Jun-18 16:33S 33°55' E 018°27'0 0.0
2016-Jun-18 15:33S 33°55' E 018°27'0 0.0
2016-Jun-18 14:33S 33°55' E 018°27'0 0.0
2016-Jun-18 13:33S 33°55' E 018°27'0 0.0
2016-Jun-18 11:33S 33°55' E 018°27'0 0.0
2016-Jun-18 10:33S 33°55' E 018°27'0 0.0
2016-Jun-18 09:33S 33°55' E 018°27'0 0.0
2016-Jun-18 08:30S 33°55' E 018°27'0 0.0
2016-Jun-18 07:33S 33°55' E 018°27'0 0.0
2016-Jun-18 06:33S 33°55' E 018°27'0 0.0
2016-Jun-18 05:30S 33°55' E 018°27'0 0.0
2016-Jun-18 04:27S 33°55' E 018°27'0 0.0
2016-Jun-18 03:33S 33°55' E 018°27'0 0.0
2016-Jun-18 02:33S 33°55' E 018°27'0 0.0
2016-Jun-18 01:33S 33°55' E 018°27'0 0.0
2016-Jun-18 00:33S 33°55' E 018°27'0 0.0
2016-Jun-17 23:33S 33°55' E 018°27'0 0.0
2016-Jun-17 22:33S 33°55' E 018°27'0 0.0
2016-Jun-17 21:30S 33°55' E 018°27'0 0.0
2016-Jun-17 20:33S 33°55' E 018°27'0 0.0
2016-Jun-17 19:33S 33°55' E 018°27'0 0.0
2016-Jun-17 18:33S 33°55' E 018°27'0 0.0
2016-Jun-17 17:33S 33°55' E 018°27'0 0.0
2016-Jun-17 16:33S 33°55' E 018°27'  

Dump ship's entire track history